Time;durP1;ratioP1;P1;durP2;ratioP2;P2;SDS_P1;SDS_P2;PMS_P1;PMS_P2;Temp;Humidity;BMP_temperature;BMP_pressure;BME280_temperature;BME280_humidity;BME280_pressure;Samples;Min_cycle;Max_cycle;Signal;HPM_P1;HPM_P2
2021/03/21 00:00:27;;;;;;;7.77;4.23;;;7.10;90.20;;;;;;5035000;28;20033;-75
2021/03/21 00:02:53;;;;;;;7.43;4.50;;;7.00;90.30;;;;;;5052625;28;20025;-73
2021/03/21 00:05:19;;;;;;;9.07;4.40;;;7.00;90.40;;;;;;5053090;28;20090;-73
2021/03/21 00:07:45;;;;;;;7.63;4.47;;;7.00;90.60;;;;;;5072402;28;20037;-73
2021/03/21 00:10:11;;;;;;;8.70;5.03;;;7.00;90.60;;;;;;5055002;28;20052;-73
2021/03/21 00:12:37;;;;;;;9.27;5.87;;;7.00;90.70;;;;;;5072678;28;20124;-73
2021/03/21 00:15:05;;;;;;;9.10;5.43;;;7.10;90.80;;;;;;5071589;28;20071;-73
2021/03/21 00:17:31;;;;;;;12.17;6.53;;;6.90;90.90;;;;;;5052982;28;20052;-73
2021/03/21 00:19:57;;;;;;;11.47;6.20;;;6.90;90.90;;;;;;5051553;28;20361;-75
2021/03/21 00:22:23;;;;;;;11.33;6.97;;;6.90;91.10;;;;;;5052533;28;20090;-73
2021/03/21 00:24:49;;;;;;;14.57;6.77;;;6.90;91.30;;;;;;5034705;28;20025;-74
2021/03/21 00:27:14;;;;;;;15.23;6.90;;;7.00;91.50;;;;;;5067329;28;20032;-73
2021/03/21 00:29:41;;;;;;;11.57;6.63;;;6.90;91.50;;;;;;5071714;28;20352;-77
2021/03/21 00:32:08;;;;;;;10.90;6.27;;;6.90;91.60;;;;;;5071120;28;20031;-77
2021/03/21 00:34:33;;;;;;;14.30;6.27;;;6.90;91.40;;;;;;5072487;28;20062;-77
2021/03/21 00:36:59;;;;;;;9.90;6.17;;;6.80;91.50;;;;;;5061004;28;20037;-77
2021/03/21 00:39:25;;;;;;;10.97;6.20;;;6.90;91.50;;;;;;5055112;28;20025;-77
2021/03/21 00:41:50;;;;;;;8.43;5.17;;;6.90;91.60;;;;;;5055992;28;20060;-77
2021/03/21 00:44:16;;;;;;;12.77;5.93;;;6.90;91.70;;;;;;5055109;28;20044;-77
2021/03/21 00:46:42;;;;;;;9.77;5.50;;;6.80;91.90;;;;;;5067018;28;20087;-76
2021/03/21 00:49:07;;;;;;;9.77;4.90;;;6.70;91.90;;;;;;5057976;28;20460;-77
2021/03/21 00:51:33;;;;;;;9.93;4.50;;;6.80;91.90;;;;;;5074834;28;20024;-77
2021/03/21 00:53:59;;;;;;;8.10;4.40;;;6.80;91.90;;;;;;5056191;28;20028;-77
2021/03/21 00:56:38;;;;;;;7.67;3.93;;;6.80;91.80;;;;;;5038011;28;20389;-77
2021/03/21 00:59:05;;;;;;;9.47;3.70;;;6.80;92.00;;;;;;5054498;28;20125;-78
2021/03/21 01:01:32;;;;;;;5.83;2.87;;;6.70;92.20;;;;;;5055957;28;20061;-77
2021/03/21 01:03:58;;;;;;;9.57;3.67;;;6.70;92.10;;;;;;5057228;28;20045;-77
2021/03/21 01:06:24;;;;;;;6.97;3.63;;;6.70;92.20;;;;;;5074780;28;20036;-77
2021/03/21 01:08:56;;;;;;;5.87;3.23;;;6.70;92.20;;;;;;5075838;28;20040;-77
2021/03/21 01:11:33;;;;;;;8.20;3.00;;;6.70;92.40;;;;;;5075782;28;20028;-77
2021/03/21 01:13:59;;;;;;;4.93;2.63;;;6.70;92.40;;;;;;5074096;28;20035;-76
2021/03/21 01:16:29;;;;;;;5.33;2.20;;;6.60;92.50;;;;;;5060031;28;20044;-76
2021/03/21 01:18:55;;;;;;;5.83;2.10;;;6.60;92.60;;;;;;5074356;28;20024;-77
2021/03/21 01:21:25;;;;;;;4.90;2.33;;;6.60;92.70;;;;;;5075275;28;20033;-77
2021/03/21 01:23:51;;;;;;;4.83;2.13;;;6.60;92.70;;;;;;5074938;28;20104;-77
2021/03/21 01:26:21;;;;;;;3.47;1.83;;;6.60;92.80;;;;;;5054336;28;20467;-77
2021/03/21 01:28:47;;;;;;;3.97;2.07;;;6.60;92.70;;;;;;5053947;28;20021;-77
2021/03/21 01:31:16;;;;;;;4.10;1.83;;;6.60;92.80;;;;;;5055396;28;20108;-76
2021/03/21 01:33:42;;;;;;;3.90;1.90;;;6.60;93.00;;;;;;5055279;28;20028;-77
2021/03/21 01:36:27;;;;;;;5.50;1.90;;;6.60;92.90;;;;;;5072573;28;20645;-77
2021/03/21 01:38:54;;;;;;;4.90;1.93;;;6.60;93.00;;;;;;5074038;28;20021;-76
2021/03/21 01:41:29;;;;;;;4.03;1.60;;;6.60;92.80;;;;;;5073921;28;20442;-76
2021/03/21 01:43:55;;;;;;;4.40;1.73;;;6.60;93.00;;;;;;5074376;28;20511;-77
2021/03/21 01:46:38;;;;;;;2.50;1.20;;;6.50;92.90;;;;;;5053524;28;20049;-77
2021/03/21 01:49:23;;;;;;;5.77;2.17;;;6.60;92.90;;;;;;5054979;28;20063;-77
2021/03/21 01:51:51;;;;;;;3.27;1.50;;;6.60;93.00;;;;;;5053723;28;20027;-77
2021/03/21 01:54:19;;;;;;;4.57;1.70;;;6.50;93.00;;;;;;5056556;28;20471;-77
2021/03/21 01:56:45;;;;;;;2.90;1.57;;;6.60;92.90;;;;;;5073907;28;20025;-77
2021/03/21 01:59:30;;;;;;;3.73;1.67;;;6.60;92.90;;;;;;5073672;28;20046;-78
2021/03/21 02:01:57;;;;;;;;;;;6.60;93.10;;;;;;5074026;28;20442;-78
2021/03/21 02:04:22;;;;;;;3.47;1.63;;;6.60;93.20;;;;;;5070910;28;19913;-78
2021/03/21 02:07:06;;;;;;;3.80;1.90;;;6.60;93.20;;;;;;5053581;28;20029;-78
2021/03/21 02:10:04;;;;;;;3.97;1.60;;;6.60;93.30;;;;;;5054680;28;20028;-77
2021/03/21 02:13:07;;;;;;;3.47;1.40;;;6.60;93.30;;;;;;5054453;28;20033;-77
2021/03/21 02:15:58;;;;;;;3.37;1.43;;;6.50;93.20;;;;;;5067254;28;20031;-76
2021/03/21 02:18:27;;;;;;;5.23;2.20;;;6.60;93.20;;;;;;5054353;28;20039;-77
2021/03/21 02:21:10;;;;;;;5.43;2.50;;;6.60;93.40;;;;;;5054463;28;20417;-78
2021/03/21 02:24:08;;;;;;;6.40;2.73;;;6.50;93.40;;;;;;5062747;28;20115;-77
2021/03/21 02:26:58;;;;;;;5.43;2.83;;;6.50;93.40;;;;;;5074425;28;20024;-77
2021/03/21 02:29:38;;;;;;;4.90;2.80;;;6.50;93.40;;;;;;5071519;28;20173;-77
2021/03/21 02:32:15;;;;;;;5.33;2.43;;;6.50;93.50;;;;;;5072822;28;20032;-77
2021/03/21 02:35:05;;;;;;;4.80;2.67;;;6.50;93.50;;;;;;5055152;28;20037;-77
2021/03/21 02:37:43;;;;;;;6.57;3.07;;;6.50;93.50;;;;;;5054114;28;20385;-77
2021/03/21 02:40:33;;;;;;;5.80;3.27;;;6.50;93.50;;;;;;5052727;28;20116;-77
2021/03/21 02:43:20;;;;;;;6.20;2.87;;;6.50;93.50;;;;;;5055237;28;20444;-77
2021/03/21 02:45:50;;;;;;;6.03;3.70;;;6.50;93.50;;;;;;5072437;28;20025;-77
2021/03/21 02:48:26;;;;;;;6.90;4.03;;;6.50;93.60;;;;;;5072448;28;20072;-78
2021/03/21 02:51:01;;;;;;;5.93;3.67;;;6.50;93.70;;;;;;5072355;28;20025;-77
2021/03/21 02:53:37;;;;;;;6.03;3.57;;;6.50;93.70;;;;;;5065608;28;20013;-79
2021/03/21 02:56:04;;;;;;;6.03;3.70;;;6.50;93.60;;;;;;5054134;28;20103;-78
2021/03/21 02:58:39;;;;;;;9.53;4.57;;;6.50;93.60;;;;;;5053302;28;20025;-77
2021/03/21 03:01:13;;;;;;;7.77;4.63;;;6.50;93.70;;;;;;5052608;28;20108;-77
2021/03/21 03:03:44;;;;;;;9.80;5.40;;;6.60;93.70;;;;;;5060226;28;20021;-77
2021/03/21 03:06:13;;;;;;;8.30;5.43;;;6.60;93.80;;;;;;5073572;28;20032;-77
2021/03/21 03:08:50;;;;;;;8.90;5.53;;;6.60;93.80;;;;;;5073539;28;20024;-77
2021/03/21 03:11:26;;;;;;;10.97;7.10;;;6.60;93.70;;;;;;5073772;28;20046;-77
2021/03/21 03:13:59;;;;;;;12.77;6.63;;;6.60;93.90;;;;;;5063337;28;20495;-77
2021/03/21 03:16:47;;;;;;;11.97;7.73;;;6.60;93.80;;;;;;5053598;28;20433;-78
2021/03/21 03:19:55;;;;;;;11.23;7.40;;;6.60;93.80;;;;;;5053486;28;20036;-78
2021/03/21 03:22:23;;;;;;;12.67;8.27;;;6.60;93.90;;;;;;5055482;28;20123;-77
2021/03/21 03:25:01;;;;;;;11.03;7.37;;;6.70;94.10;;;;;;5069683;28;20028;-77
2021/03/21 03:27:49;;;;;;;14.67;8.03;;;6.60;94.10;;;;;;5073395;28;20036;-77
2021/03/21 03:30:20;;;;;;;12.63;7.80;;;6.60;94.10;;;;;;5073564;28;20048;-77
2021/03/21 03:32:46;;;;;;;12.70;7.80;;;6.60;94.20;;;;;;5072730;28;20032;-77
2021/03/21 03:35:15;;;;;;;13.83;8.87;;;6.60;94.10;;;;;;5051998;28;20419;-77
2021/03/21 03:37:41;;;;;;;12.30;8.57;;;6.60;94.30;;;;;;5051851;28;20527;-77
2021/03/21 03:40:09;;;;;;;14.60;9.07;;;6.60;94.30;;;;;;5052909;28;20029;-77
2021/03/21 03:43:00;;;;;;;11.13;7.17;;;6.60;94.30;;;;;;5052769;28;20025;-77
2021/03/21 03:45:35;;;;;;;12.87;8.80;;;6.60;94.20;;;;;;5051504;28;20392;-77
2021/03/21 03:48:20;;;;;;;14.07;8.80;;;6.60;94.30;;;;;;5052602;28;20488;-77
2021/03/21 03:51:10;;;;;;;15.93;9.43;;;6.60;94.30;;;;;;5051757;28;20033;-77
2021/03/21 03:53:44;;;;;;;13.77;9.17;;;6.60;94.30;;;;;;5071435;28;20403;-77
2021/03/21 03:56:24;;;;;;;15.13;9.80;;;6.70;94.40;;;;;;5072777;28;20032;-77
2021/03/21 03:59:13;;;;;;;13.80;8.80;;;6.60;94.50;;;;;;5071808;28;20021;-76
2021/03/21 04:01:41;;;;;;;18.40;9.07;;;6.60;94.50;;;;;;5064582;28;20448;-77
2021/03/21 04:04:22;;;;;;;15.77;10.30;;;6.60;94.60;;;;;;5052828;28;20040;-77
2021/03/21 04:06:58;;;;;;;16.23;10.47;;;6.70;94.80;;;;;;5052992;28;20017;-76
2021/03/21 04:09:30;;;;;;;17.33;10.30;;;6.70;94.60;;;;;;5052736;28;20094;-76
2021/03/21 04:12:01;;;;;;;14.90;9.20;;;6.60;94.70;;;;;;5058323;28;20394;-77
2021/03/21 04:14:39;;;;;;;15.80;9.53;;;6.70;94.60;;;;;;5076861;28;20035;-76
2021/03/21 04:17:17;;;;;;;17.80;10.60;;;6.70;94.70;;;;;;5076788;28;20452;-76
2021/03/21 04:19:59;;;;;;;16.40;9.70;;;6.70;94.70;;;;;;5076694;28;20027;-76
2021/03/21 04:22:34;;;;;;;19.30;10.83;;;6.70;94.70;;;;;;5068505;28;20021;-76
2021/03/21 04:25:05;;;;;;;;;;;6.70;94.70;;;;;;5057005;28;20052;-76
2021/03/21 04:27:50;;;;;;;15.27;9.87;;;6.70;94.60;;;;;;5056319;28;19904;-76
2021/03/21 04:30:27;;;;;;;18.33;10.77;;;6.80;94.60;;;;;;5054989;28;20380;-76
2021/03/21 04:32:53;;;;;;;15.67;10.07;;;6.80;94.50;;;;;;5066074;28;20025;-76
2021/03/21 04:35:24;;;;;;;18.13;10.67;;;6.80;94.50;;;;;;5042610;28;20040;-76
2021/03/21 04:37:57;;;;;;;19.27;10.40;;;6.80;94.50;;;;;;5056706;28;20025;-76
2021/03/21 04:40:23;;;;;;;19.13;10.93;;;6.80;94.50;;;;;;5056480;28;20524;-76
2021/03/21 04:42:55;;;;;;;19.47;11.27;;;6.90;94.50;;;;;;5065133;28;20032;-76
2021/03/21 04:45:29;;;;;;;20.33;11.57;;;6.80;94.50;;;;;;5075026;28;20013;-76
2021/03/21 04:48:09;;;;;;;17.60;10.37;;;6.90;94.50;;;;;;5076248;28;20040;-77
2021/03/21 04:50:36;;;;;;;22.00;11.50;;;6.80;94.40;;;;;;5075913;28;20025;-76
2021/03/21 04:53:27;;;;;;;20.10;11.93;;;6.90;94.40;;;;;;5062532;28;20029;-76
2021/03/21 04:55:59;;;;;;;18.00;10.40;;;6.90;94.40;;;;;;5055798;28;20208;-76
2021/03/21 04:58:44;;;;;;;20.97;10.77;;;6.90;94.30;;;;;;5056289;28;20033;-76
2021/03/21 05:01:16;;;;;;;21.47;10.77;;;6.90;94.20;;;;;;5061876;28;20541;-76
2021/03/21 05:04:05;;;;;;;18.70;10.70;;;6.90;94.30;;;;;;5057999;28;20445;-76
2021/03/21 05:06:36;;;;;;;17.57;10.90;;;7.00;94.20;;;;;;5054885;28;20037;-76
2021/03/21 05:09:05;;;;;;;18.00;10.57;;;6.90;94.20;;;;;;5054815;28;20107;-76
2021/03/21 05:11:38;;;;;;;18.77;10.37;;;6.90;94.10;;;;;;5055945;28;20028;-76
2021/03/21 05:14:14;;;;;;;17.47;10.03;;;7.00;94.10;;;;;;5055779;28;20029;-74
2021/03/21 05:17:01;;;;;;;19.23;9.63;;;6.90;94.10;;;;;;5055314;28;20036;-74
2021/03/21 05:19:35;;;;;;;19.33;9.80;;;7.00;94.30;;;;;;5055473;28;20433;-74
2021/03/21 05:22:13;;;;;;;19.33;9.90;;;7.00;94.00;;;;;;5069512;28;20029;-74
2021/03/21 05:24:38;;;;;;;17.37;8.70;;;7.00;93.90;;;;;;5075710;28;20112;-73
2021/03/21 05:27:12;;;;;;;16.80;8.43;;;7.00;93.80;;;;;;5075324;28;20435;-74
2021/03/21 05:29:47;;;;;;;;;;;7.00;93.80;;;;;;5076231;28;20013;-74
2021/03/21 05:32:16;;;;;;;15.85;8.13;;;7.00;93.70;;;;;;5057694;28;19970;-73
2021/03/21 05:34:42;;;;;;;28.23;8.80;;;7.00;93.60;;;;;;5055671;28;20376;-74
2021/03/21 05:37:14;;;;;;;19.00;7.20;;;7.10;93.50;;;;;;5053792;28;20124;-74
2021/03/21 05:39:59;;;;;;;17.20;7.30;;;7.00;93.40;;;;;;5054898;28;20036;-74
2021/03/21 05:43:01;;;;;;;17.80;7.60;;;7.00;93.40;;;;;;5054235;28;20025;-73
2021/03/21 05:45:50;;;;;;;20.00;6.77;;;7.00;93.30;;;;;;5054354;28;20021;-73
2021/03/21 05:49:00;;;;;;;14.80;5.90;;;7.00;93.20;;;;;;5052491;28;20469;-78
2021/03/21 05:51:43;;;;;;;13.87;5.17;;;7.10;93.00;;;;;;5055660;28;20025;-77
2021/03/21 05:54:32;;;;;;;10.65;4.20;;;7.10;92.80;;;;;;5053607;28;20497;-77
2021/03/21 05:57:25;;;;;;;11.73;3.87;;;7.10;92.70;;;;;;5054661;28;20068;-76
2021/03/21 06:00:09;;;;;;;11.13;3.33;;;7.10;92.60;;;;;;5067730;28;20480;-77
2021/03/21 06:03:22;;;;;;;8.83;3.20;;;7.10;92.60;;;;;;5054994;28;20112;-76
2021/03/21 06:05:53;;;;;;;12.57;2.93;;;7.10;92.50;;;;;;5071488;28;20052;-76
2021/03/21 06:08:30;;;;;;;9.17;2.43;;;7.10;92.40;;;;;;5057620;28;20037;-77
2021/03/21 06:11:20;;;;;;;11.83;2.67;;;7.20;92.40;;;;;;5059066;28;20024;-78
2021/03/21 06:14:16;;;;;;;12.97;2.67;;;7.10;92.30;;;;;;5073173;28;20025;-77
2021/03/21 06:16:48;;;;;;;10.53;2.47;;;7.20;92.30;;;;;;5074364;28;20032;-77
2021/03/21 06:19:16;;;;;;;13.43;2.97;;;7.20;92.20;;;;;;5073037;28;20039;-77
2021/03/21 06:22:22;;;;;;;11.43;2.30;;;7.20;92.20;;;;;;5063073;28;20025;-77
2021/03/21 06:25:06;;;;;;;14.87;2.23;;;7.20;92.20;;;;;;5053400;28;20380;-77
2021/03/21 06:28:05;;;;;;;7.00;1.60;;;7.20;92.10;;;;;;5054336;28;20036;-77
2021/03/21 06:30:43;;;;;;;12.93;1.97;;;7.20;92.10;;;;;;5054915;28;20086;-77
2021/03/21 06:33:20;;;;;;;15.17;2.20;;;7.20;92.10;;;;;;5072447;28;20032;-78
2021/03/21 06:35:52;;;;;;;12.07;2.37;;;7.20;92.10;;;;;;5073673;28;20090;-77
2021/03/21 06:38:26;;;;;;;4.93;1.07;;;7.20;92.20;;;;;;5074213;28;20063;-79
2021/03/21 06:41:19;;;;;;;11.60;1.65;;;7.20;92.30;;;;;;5070219;28;20047;-77
2021/03/21 06:44:04;;;;;;;6.50;1.17;;;7.20;92.30;;;;;;5052465;28;20040;-77
2021/03/21 06:46:48;;;;;;;12.63;1.67;;;7.20;92.20;;;;;;5052300;28;20480;-73
2021/03/21 06:49:19;;;;;;;12.23;1.38;;;7.20;92.20;;;;;;5052421;28;20460;-74
2021/03/21 06:51:54;;;;;;;9.63;1.10;;;7.20;92.20;;;;;;5062977;28;20047;-74
2021/03/21 06:54:22;;;;;;;5.00;1.10;;;7.20;92.20;;;;;;5072452;28;20016;-73
2021/03/21 06:56:54;;;;;;;7.73;1.00;;;7.20;92.10;;;;;;5074072;28;20031;-74
2021/03/21 06:59:44;;;;;;;8.83;1.00;;;7.20;92.00;;;;;;5072673;28;20020;-74
2021/03/21 07:02:40;;;;;;;6.30;1.20;;;7.20;91.90;;;;;;5059544;28;20036;-74
2021/03/21 07:05:09;;;;;;;10.13;1.07;;;7.20;91.80;;;;;;5053743;28;20043;-74
2021/03/21 07:08:19;;;;;;;8.33;1.50;;;7.30;91.70;;;;;;5053759;28;20040;-73
2021/03/21 07:11:15;;;;;;;9.80;1.17;;;7.30;91.60;;;;;;5053792;28;20040;-73
2021/03/21 07:14:24;;;;;;;14.80;1.10;;;7.30;91.40;;;;;;5071635;28;20033;-73
2021/03/21 07:17:17;;;;;;;7.10;0.80;;;7.40;91.30;;;;;;5073285;28;20031;-74
2021/03/21 07:20:08;;;;;;;10.73;1.20;;;7.40;91.20;;;;;;5071653;28;20028;-74
2021/03/21 07:22:46;;;;;;;7.93;1.10;;;7.40;91.10;;;;;;5054852;28;20025;-74
2021/03/21 07:25:49;;;;;;;4.87;0.77;;;7.40;91.00;;;;;;5051809;28;20033;-74
2021/03/21 07:28:39;;;;;;;14.10;1.17;;;7.50;91.00;;;;;;5053153;28;20029;-74
2021/03/21 07:31:35;;;;;;;8.10;0.80;;;7.50;90.90;;;;;;5056903;28;20119;-75
2021/03/21 07:34:07;;;;;;;10.33;1.40;;;7.60;90.70;;;;;;5071608;28;20369;-74
2021/03/21 07:37:06;;;;;;;5.47;0.77;;;7.60;90.60;;;;;;5073139;28;20035;-74
2021/03/21 07:40:09;;;;;;;10.57;1.90;;;7.60;90.60;;;;;;5071788;28;20025;-74
2021/03/21 07:43:04;;;;;;;10.80;0.90;;;7.80;90.50;;;;;;5070837;28;20372;-74
2021/03/21 07:45:38;;;;;;;;;;;7.80;90.40;;;;;;5069932;28;20452;-74
2021/03/21 07:48:42;;;;;;;11.38;1.00;;;7.90;90.00;;;;;;5066387;28;20269;-74
2021/03/21 07:51:23;;;;;;;4.03;0.60;;;7.90;89.70;;;;;;5073787;28;20029;-74
2021/03/21 07:54:08;;;;;;;14.73;1.30;;;8.00;88.60;;;;;;5059493;28;20035;-74
2021/03/21 07:56:42;;;;;;;;;;;8.10;86.60;;;;;;5058698;28;20542;-74
2021/03/21 07:59:18;;;;;;;9.80;1.10;;;8.10;86.30;;;;;;5059509;28;19904;-74
2021/03/21 08:01:44;;;;;;;12.63;1.37;;;8.20;85.30;;;;;;5064398;28;20033;-74
2021/03/21 08:04:46;;;;;;;8.33;1.17;;;8.20;84.70;;;;;;5079051;28;20037;-73
2021/03/21 08:07:16;;;;;;;10.43;1.53;;;8.20;84.60;;;;;;5078984;28;20039;-74
2021/03/21 08:09:42;;;;;;;11.63;1.50;;;8.30;84.70;;;;;;5079389;28;20063;-73
2021/03/21 08:12:21;;;;;;;7.17;1.27;;;8.30;83.40;;;;;;5057529;28;20483;-74
2021/03/21 08:14:56;;;;;;;10.83;1.40;;;8.40;82.40;;;;;;5057744;28;20021;-72
2021/03/21 08:17:43;;;;;;;14.63;1.67;;;8.40;81.60;;;;;;5057399;28;20024;-73
2021/03/21 08:20:25;;;;;;;11.53;1.53;;;8.40;81.10;;;;;;5057809;28;20021;-73
2021/03/21 08:23:14;;;;;;;12.73;1.60;;;8.40;81.30;;;;;;5057731;28;20361;-75
2021/03/21 08:25:41;;;;;;;14.03;1.67;;;8.40;80.10;;;;;;5057612;28;20107;-73
2021/03/21 08:28:15;;;;;;;13.60;1.77;;;8.50;79.40;;;;;;5059162;28;20029;-75
2021/03/21 08:30:50;;;;;;;13.00;1.40;;;8.50;79.40;;;;;;5059060;28;20025;-74
2021/03/21 08:33:41;;;;;;;13.87;2.00;;;8.50;79.10;;;;;;5063192;28;20037;-74
2021/03/21 08:36:18;;;;;;;10.10;1.63;;;8.50;79.00;;;;;;5057497;28;20496;-73
2021/03/21 08:38:56;;;;;;;18.00;2.70;;;8.60;79.80;;;;;;5074357;28;20127;-73
2021/03/21 08:41:22;;;;;;;16.20;2.40;;;8.60;79.60;;;;;;5059045;28;20061;-74
2021/03/21 08:44:01;;;;;;;19.27;2.50;;;8.60;79.60;;;;;;5062021;28;20032;-75
2021/03/21 08:46:27;;;;;;;17.10;2.60;;;8.60;79.20;;;;;;5069981;28;20086;-75
2021/03/21 08:49:21;;;;;;;20.67;2.80;;;8.70;79.00;;;;;;5063861;28;20561;-74
2021/03/21 08:51:47;;;;;;;15.47;1.70;;;8.80;77.80;;;;;;5075278;28;20037;-74
2021/03/21 08:54:18;;;;;;;17.93;2.53;;;8.80;75.60;;;;;;5044218;28;20075;-75
2021/03/21 08:56:56;;;;;;;18.33;3.30;;;8.80;74.80;;;;;;5064000;28;20039;-74
2021/03/21 08:59:27;;;;;;;16.87;3.00;;;8.80;73.00;;;;;;5054429;28;20131;-76
2021/03/21 09:02:01;;;;;;;22.27;2.43;;;8.90;72.20;;;;;;5059339;28;20028;-75
2021/03/21 09:04:27;;;;;;;17.40;2.83;;;8.90;72.60;;;;;;5062478;28;20032;-74
2021/03/21 09:06:53;;;;;;;21.63;3.40;;;9.00;72.20;;;;;;5074834;28;20055;-74
2021/03/21 09:09:36;;;;;;;13.33;1.67;;;8.90;72.40;;;;;;5064804;28;20079;-75
2021/03/21 09:12:28;;;;;;;13.43;2.50;;;9.00;72.70;;;;;;5059137;28;20025;-75
2021/03/21 09:15:28;;;;;;;19.97;2.57;;;9.00;72.30;;;;;;5068139;28;20024;-74
2021/03/21 09:18:23;;;;;;;22.50;2.57;;;9.00;72.90;;;;;;5075980;28;20063;-74
2021/03/21 09:21:26;;;;;;;17.20;2.27;;;8.90;73.20;;;;;;5074827;28;20533;-75
2021/03/21 09:24:07;;;;;;;22.13;2.43;;;9.00;73.40;;;;;;5073864;28;20056;-75
2021/03/21 09:26:44;;;;;;;19.67;2.70;;;9.00;72.80;;;;;;5073667;28;20506;-76
2021/03/21 09:29:27;;;;;;;17.50;2.30;;;9.10;71.80;;;;;;5075453;28;20028;-74
2021/03/21 09:31:56;;;;;;;18.77;2.90;;;9.10;71.50;;;;;;5074424;28;20488;-73
2021/03/21 09:34:47;;;;;;;26.43;2.83;;;9.10;70.70;;;;;;5075379;28;20534;-73
2021/03/21 09:37:17;;;;;;;16.20;2.37;;;9.20;71.10;;;;;;5060349;28;20017;-73
2021/03/21 09:39:54;;;;;;;23.00;4.00;;;9.30;70.60;;;;;;5057207;28;20381;-76
2021/03/21 09:42:20;;;;;;;18.87;3.37;;;9.40;69.10;;;;;;5075416;28;20025;-74
2021/03/21 09:44:47;;;;;;;19.07;2.87;;;9.40;69.50;;;;;;5064309;28;20036;-73
2021/03/21 09:47:26;;;;;;;17.77;3.00;;;9.40;68.40;;;;;;5073932;28;20492;-72
2021/03/21 09:50:14;;;;;;;18.37;3.50;;;9.40;68.70;;;;;;5053822;28;20100;-74
2021/03/21 09:53:30;;;;;;;20.70;3.30;;;9.40;67.00;;;;;;5064361;28;20052;-73
2021/03/21 09:56:02;;;;;;;26.13;4.97;;;9.50;67.00;;;;;;5047182;28;20103;-76
2021/03/21 09:58:46;;;;;;;22.60;3.20;;;9.50;66.80;;;;;;5071350;28;20016;-72
2021/03/21 10:01:41;;;;;;;18.92;3.60;;;9.50;66.70;;;;;;5056632;28;20025;-75
2021/03/21 10:04:46;;;;;;;21.57;3.40;;;9.30;65.90;;;;;;5062847;28;20032;-73
2021/03/21 10:07:21;;;;;;;17.80;3.20;;;9.40;66.30;;;;;;5067116;28;20008;-73
2021/03/21 10:09:48;;;;;;;25.37;3.43;;;9.50;65.80;;;;;;5073395;28;20085;-72
2021/03/21 10:12:15;;;;;;;19.50;2.83;;;9.50;65.20;;;;;;5073187;28;20532;-74
2021/03/21 10:14:47;;;;;;;19.97;2.67;;;9.40;64.60;;;;;;5073003;28;20061;-73
2021/03/21 10:17:16;;;;;;;16.70;2.80;;;9.60;65.00;;;;;;5074358;28;20029;-72
2021/03/21 10:19:47;;;;;;;17.07;2.60;;;9.60;65.20;;;;;;5061777;28;20516;-74
2021/03/21 10:22:34;;;;;;;20.70;2.90;;;9.70;64.60;;;;;;5063603;28;20031;-72
2021/03/21 10:25:22;;;;;;;22.07;3.73;;;9.70;64.40;;;;;;5067057;28;20036;-72
2021/03/21 10:27:50;;;;;;;25.10;3.80;;;9.80;64.90;;;;;;5062846;28;20035;-72
2021/03/21 10:30:29;;;;;;;18.27;3.57;;;9.70;65.30;;;;;;5060400;28;20110;-73
2021/03/21 10:33:00;;;;;;;20.13;3.33;;;9.90;64.80;;;;;;5063730;28;20009;-73
2021/03/21 10:35:28;;;;;;;26.63;3.87;;;9.80;64.80;;;;;;5058748;28;20021;-74
2021/03/21 10:37:59;;;;;;;23.47;3.00;;;9.80;64.50;;;;;;5066168;28;20021;-73
2021/03/21 10:40:24;;;;;;;21.73;3.30;;;9.80;64.00;;;;;;5065357;28;20016;-74
2021/03/21 10:43:00;;;;;;;19.63;3.53;;;9.80;63.20;;;;;;5058176;28;20044;-73
2021/03/21 10:45:32;;;;;;;27.23;3.97;;;9.70;62.90;;;;;;5063207;28;20054;-74
2021/03/21 10:47:59;;;;;;;26.33;4.60;;;9.80;63.00;;;;;;5065810;28;20052;-74
2021/03/21 10:50:28;;;;;;;27.20;3.80;;;9.70;62.40;;;;;;5061631;28;20056;-74
2021/03/21 10:53:27;;;;;;;23.37;4.13;;;9.70;62.00;;;;;;5058523;28;20029;-74
2021/03/21 10:56:20;;;;;;;30.33;3.47;;;9.70;62.90;;;;;;5071968;28;20025;-75
2021/03/21 10:58:46;;;;;;;23.80;3.37;;;9.80;63.00;;;;;;5073514;28;20028;-75
2021/03/21 11:01:18;;;;;;;18.10;3.03;;;9.80;63.00;;;;;;5063833;28;20032;-74
2021/03/21 11:03:59;;;;;;;23.20;2.87;;;9.90;62.80;;;;;;5061562;28;20040;-74
2021/03/21 11:06:27;;;;;;;18.60;3.23;;;10.00;63.10;;;;;;5067266;28;20082;-75
2021/03/21 11:08:53;;;;;;;18.67;2.83;;;10.10;62.60;;;;;;5059144;28;20479;-75
2021/03/21 11:11:36;;;;;;;26.37;3.83;;;10.20;62.40;;;;;;5060792;28;20063;-74
2021/03/21 11:14:33;;;;;;;18.47;4.00;;;10.30;62.50;;;;;;5052297;28;20025;-75
2021/03/21 11:17:14;;;;;;;18.73;3.83;;;10.20;61.70;;;;;;5053319;28;20045;-75
2021/03/21 11:19:58;;;;;;;21.93;3.73;;;10.20;62.00;;;;;;5053214;28;20066;-74
2021/03/21 11:22:29;;;;;;;25.98;3.05;;;10.10;61.60;;;;;;5053688;28;20469;-73
2021/03/21 11:24:54;;;;;;;22.97;3.17;;;10.10;61.30;;;;;;5054693;28;20037;-73
2021/03/21 11:27:48;;;;;;;27.97;4.70;;;10.20;62.10;;;;;;5068166;28;20473;-74
2021/03/21 11:30:26;;;;;;;19.27;3.40;;;10.40;60.90;;;;;;5071589;28;20123;-73
2021/03/21 11:32:52;;;;;;;22.40;2.93;;;10.40;60.80;;;;;;5071383;28;20017;-73
2021/03/21 11:35:30;;;;;;;19.87;3.17;;;10.40;61.10;;;;;;5050099;28;20013;-74
2021/03/21 11:37:58;;;;;;;21.90;2.70;;;10.40;60.90;;;;;;5060114;28;20013;-74
2021/03/21 11:40:31;;;;;;;21.93;4.07;;;10.40;60.60;;;;;;5065949;28;20033;-74
2021/03/21 11:43:25;;;;;;;17.93;2.83;;;10.40;60.90;;;;;;5053098;28;20036;-73
2021/03/21 11:45:51;;;;;;;16.88;3.13;;;10.40;61.10;;;;;;5062716;28;20361;-73
2021/03/21 11:48:20;;;;;;;14.30;2.37;;;10.40;60.40;;;;;;5065137;28;20514;-74
2021/03/21 11:50:47;;;;;;;22.23;3.03;;;10.50;59.90;;;;;;5056810;28;20044;-75
2021/03/21 11:53:37;;;;;;;19.27;3.33;;;10.50;60.10;;;;;;5036101;28;20021;-73
2021/03/21 11:56:25;;;;;;;30.67;4.30;;;10.60;60.30;;;;;;5065098;28;20391;-74
2021/03/21 11:59:03;;;;;;;16.10;2.50;;;10.70;60.50;;;;;;5072050;28;20083;-74
2021/03/21 12:01:35;;;;;;;19.30;3.33;;;10.80;60.10;;;;;;5055749;28;20036;-73
2021/03/21 12:04:03;;;;;;;19.60;3.67;;;10.90;60.20;;;;;;5052745;28;20033;-73
2021/03/21 12:06:33;;;;;;;17.87;3.20;;;10.80;60.20;;;;;;5068081;28;20020;-73
2021/03/21 12:09:12;;;;;;;22.73;3.77;;;10.80;60.00;;;;;;5073214;28;20013;-74
2021/03/21 12:11:42;;;;;;;22.47;3.30;;;10.70;59.80;;;;;;5052207;28;20029;-73
2021/03/21 12:14:24;;;;;;;20.23;3.70;;;10.60;60.00;;;;;;5051476;28;20082;-73
2021/03/21 12:16:50;;;;;;;19.30;3.33;;;10.50;60.40;;;;;;5061290;28;20028;-73
2021/03/21 12:19:38;;;;;;;26.53;4.33;;;10.40;60.20;;;;;;5058068;28;20040;-73
2021/03/21 12:22:18;;;;;;;23.77;3.63;;;10.30;60.20;;;;;;5065777;28;20021;-73
2021/03/21 12:24:55;;;;;;;27.30;3.90;;;10.30;60.20;;;;;;5076999;28;20108;-73
2021/03/21 12:27:28;;;;;;;19.33;3.00;;;10.30;60.10;;;;;;5062685;28;20025;-73
2021/03/21 12:30:05;;;;;;;19.53;3.03;;;10.30;60.20;;;;;;5066263;28;20066;-73
2021/03/21 12:32:35;;;;;;;19.03;3.00;;;10.30;60.40;;;;;;5071355;28;20025;-74
2021/03/21 12:35:07;;;;;;;21.73;3.23;;;10.30;60.50;;;;;;5076318;28;20059;-74
2021/03/21 12:37:59;;;;;;;21.57;3.57;;;10.40;60.30;;;;;;5057181;28;20036;-72
2021/03/21 12:40:31;;;;;;;26.17;4.73;;;10.40;59.80;;;;;;5065918;28;20024;-73
2021/03/21 12:42:57;;;;;;;26.23;3.90;;;10.40;60.00;;;;;;5064755;28;20032;-73
2021/03/21 12:45:29;;;;;;;19.90;3.23;;;10.40;60.00;;;;;;5055267;28;20036;-73
2021/03/21 12:47:55;;;;;;;22.97;4.07;;;10.40;60.00;;;;;;5061014;28;20128;-73
2021/03/21 12:50:38;;;;;;;22.67;4.03;;;10.30;59.50;;;;;;5063049;28;20168;-73
2021/03/21 12:53:10;;;;;;;23.87;3.23;;;10.30;59.30;;;;;;5073499;28;20040;-73
2021/03/21 12:55:36;;;;;;;17.13;3.33;;;10.30;59.80;;;;;;5071102;28;20067;-74
2021/03/21 12:58:02;;;;;;;21.37;3.90;;;10.30;60.00;;;;;;5062289;28;20473;-73
2021/03/21 13:00:32;;;;;;;23.30;4.43;;;10.40;60.30;;;;;;5047993;28;20063;-73
2021/03/21 13:03:01;;;;;;;14.47;2.83;;;10.50;60.40;;;;;;5062731;28;20032;-73
2021/03/21 13:05:30;;;;;;;17.93;2.90;;;10.60;60.20;;;;;;5068730;28;20382;-74
2021/03/21 13:07:57;;;;;;;28.13;4.53;;;10.60;59.80;;;;;;5055692;28;20025;-74
2021/03/21 13:10:24;;;;;;;24.57;3.63;;;10.50;58.70;;;;;;5061288;28;20060;-74
2021/03/21 13:12:50;;;;;;;18.97;3.17;;;10.40;59.00;;;;;;5069947;28;20032;-73
2021/03/21 13:15:17;;;;;;;19.27;2.67;;;10.30;59.30;;;;;;5074309;28;20032;-74
2021/03/21 13:17:43;;;;;;;18.23;3.37;;;10.30;59.60;;;;;;5059230;28;20210;-74
2021/03/21 13:20:11;;;;;;;19.00;3.33;;;10.40;60.00;;;;;;5063364;28;20061;-74
2021/03/21 13:22:37;;;;;;;32.07;4.10;;;10.40;60.10;;;;;;5053696;28;20029;-75
2021/03/21 13:25:04;;;;;;;20.73;3.60;;;10.30;60.10;;;;;;5053708;28;20048;-74
2021/03/21 13:27:29;;;;;;;23.37;3.83;;;10.20;60.10;;;;;;5054889;28;20048;-74
2021/03/21 13:29:56;;;;;;;23.37;4.07;;;10.30;60.20;;;;;;5058544;28;20024;-75
2021/03/21 13:32:21;;;;;;;21.83;4.03;;;10.20;60.00;;;;;;5063843;28;20089;-74
2021/03/21 13:34:47;;;;;;;23.57;4.10;;;10.20;60.30;;;;;;5067558;28;21271;-74
2021/03/21 13:37:15;;;;;;;26.30;3.90;;;10.20;60.30;;;;;;5060703;28;20041;-74